createdAt,value
2018-07-20T00:01:48.933Z,4.53
2018-07-20T00:04:18.310Z,3.67
2018-07-20T00:06:47.699Z,3.93
2018-07-20T00:09:16.811Z,3.80
2018-07-20T00:11:46.170Z,4.00
2018-07-20T00:14:15.548Z,4.62
2018-07-20T00:16:44.969Z,4.03
2018-07-20T00:19:14.123Z,4.03
2018-07-20T00:21:43.509Z,4.23
2018-07-20T00:24:12.622Z,3.80
2018-07-20T00:26:41.988Z,4.00
2018-07-20T00:29:11.371Z,4.13
2018-07-20T00:31:40.737Z,4.03
2018-07-20T00:34:10.125Z,3.97
2018-07-20T00:36:39.496Z,3.90
2018-07-20T00:39:10.481Z,3.53
2018-07-20T00:41:40.281Z,3.83
2018-07-20T00:44:09.672Z,4.77
2018-07-20T00:46:39.045Z,3.70
2018-07-20T00:49:08.429Z,3.97
2018-07-20T00:51:37.816Z,4.30
2018-07-20T00:54:07.199Z,4.10
2018-07-20T00:56:36.564Z,3.67
2018-07-20T00:59:05.663Z,4.27
2018-07-20T01:01:34.981Z,3.60
2018-07-20T01:04:04.400Z,4.27
2018-07-20T01:06:33.703Z,4.20
2018-07-20T01:09:03.051Z,3.80
2018-07-20T01:11:32.380Z,4.13
2018-07-20T01:14:01.695Z,4.33
2018-07-20T01:16:31.075Z,4.13
2018-07-20T01:19:00.169Z,4.40
2018-07-20T01:21:29.251Z,4.00
2018-07-20T01:23:58.586Z,3.90
2018-07-20T01:26:27.899Z,3.80
2018-07-20T01:28:57.214Z,4.20
2018-07-20T01:31:26.531Z,4.07
2018-07-20T01:33:55.840Z,4.13
2018-07-20T01:36:25.151Z,4.12
2018-07-20T01:38:54.461Z,4.03
2018-07-20T01:41:23.535Z,4.60
2018-07-20T01:43:52.847Z,4.70
2018-07-20T01:46:22.169Z,4.65
2018-07-20T01:48:51.497Z,3.83
2018-07-20T01:51:20.840Z,4.03
2018-07-20T01:53:50.159Z,4.07
2018-07-20T01:56:19.531Z,3.50
2018-07-20T01:58:48.910Z,4.03
2018-07-20T02:01:18.279Z,4.07
2018-07-20T02:03:47.643Z,3.87
2018-07-20T02:06:17.017Z,3.40
2018-07-20T02:08:46.367Z,3.90
2018-07-20T02:11:15.639Z,3.97
2018-07-20T02:13:45.081Z,4.20
2018-07-20T02:16:14.449Z,3.95
2018-07-20T02:18:43.803Z,4.30
2018-07-20T02:21:13.172Z,4.13
2018-07-20T02:23:42.279Z,4.20
2018-07-20T02:26:11.648Z,4.33
2018-07-20T02:28:41.015Z,4.43
2018-07-20T02:31:10.377Z,4.10
2018-07-20T02:33:46.186Z,4.73
2018-07-20T02:36:15.532Z,4.00
2018-07-20T02:38:44.714Z,4.23
2018-07-20T02:41:13.798Z,4.67
2018-07-20T02:43:43.119Z,4.07
2018-07-20T02:46:12.232Z,4.43
2018-07-20T02:48:41.696Z,3.60
2018-07-20T02:51:11.035Z,3.80
2018-07-20T02:53:40.366Z,3.77
2018-07-20T02:56:09.718Z,4.50
2018-07-20T02:58:39.071Z,4.10
2018-07-20T03:01:08.455Z,4.20
2018-07-20T03:03:37.815Z,4.23
2018-07-20T03:06:07.184Z,3.93
2018-07-20T03:08:36.580Z,3.73
2018-07-20T03:11:05.937Z,3.60
2018-07-20T03:13:35.061Z,3.90
2018-07-20T03:16:04.423Z,4.67
2018-07-20T03:18:33.626Z,4.40
2018-07-20T03:21:03.051Z,3.97
2018-07-20T03:23:32.747Z,4.67
2018-07-20T03:26:02.128Z,3.90
2018-07-20T03:28:31.241Z,4.50
2018-07-20T03:31:00.610Z,4.07
2018-07-20T03:33:29.954Z,4.50
2018-07-20T03:35:59.307Z,4.37
2018-07-20T03:38:28.761Z,4.70
2018-07-20T03:40:58.116Z,4.27
2018-07-20T03:43:27.479Z,4.80
2018-07-20T03:45:56.830Z,3.83
2018-07-20T03:48:26.194Z,4.05
2018-07-20T03:50:55.547Z,3.90
2018-07-20T03:53:24.906Z,3.90
2018-07-20T03:55:54.271Z,3.97
2018-07-20T03:58:23.606Z,4.63
2018-07-20T04:00:52.948Z,4.10
2018-07-20T04:03:22.029Z,4.33
2018-07-20T04:05:51.367Z,5.00
2018-07-20T04:08:20.700Z,4.60
2018-07-20T04:10:50.055Z,4.40
2018-07-20T04:13:19.407Z,7.27
2018-07-20T04:15:48.742Z,5.63
2018-07-20T04:18:17.834Z,4.30
2018-07-20T04:20:46.906Z,4.67
2018-07-20T04:23:16.230Z,4.93
2018-07-20T04:25:50.190Z,4.63
2018-07-20T04:28:19.336Z,4.80
2018-07-20T04:30:48.410Z,4.87
2018-07-20T04:33:17.800Z,5.13
2018-07-20T04:35:47.147Z,5.17
2018-07-20T04:38:16.217Z,6.08
2018-07-20T04:40:45.311Z,6.93
2018-07-20T04:43:14.637Z,7.03
2018-07-20T04:45:43.990Z,6.80
2018-07-20T04:48:13.316Z,6.17
2018-07-20T04:50:42.645Z,5.93
2018-07-20T04:53:11.983Z,6.90
2018-07-20T04:55:41.301Z,6.87
2018-07-20T04:58:10.630Z,6.43
2018-07-20T05:00:39.730Z,6.97
2018-07-20T05:03:09.088Z,6.60
2018-07-20T05:05:38.506Z,6.50
2018-07-20T05:08:08.893Z,6.45
2018-07-20T05:10:38.231Z,6.60
2018-07-20T05:13:07.554Z,6.97
2018-07-20T05:15:36.891Z,6.30
2018-07-20T05:18:06.218Z,7.20
2018-07-20T05:20:35.549Z,6.83
2018-07-20T05:23:04.883Z,6.63
2018-07-20T05:25:34.235Z,6.67
2018-07-20T05:28:03.564Z,7.17
2018-07-20T05:30:32.899Z,6.53
2018-07-20T05:33:02.238Z,7.23
2018-07-20T05:35:31.566Z,6.63
2018-07-20T05:38:00.898Z,6.93
2018-07-20T05:40:30.236Z,6.33
2018-07-20T05:42:59.571Z,6.63
2018-07-20T05:45:28.905Z,7.10
2018-07-20T05:47:58.241Z,7.73
2018-07-20T05:50:27.570Z,7.37
2018-07-20T05:52:56.898Z,7.80
2018-07-20T05:55:26.242Z,7.30
2018-07-20T05:57:55.574Z,7.17
2018-07-20T06:00:24.951Z,7.30
2018-07-20T06:02:54.313Z,7.47
2018-07-20T06:05:23.670Z,7.20
2018-07-20T06:07:52.758Z,6.90
2018-07-20T06:10:21.857Z,7.10
2018-07-20T06:12:50.962Z,7.40
2018-07-20T06:15:20.471Z,7.40
2018-07-20T06:17:49.821Z,6.87
2018-07-20T06:20:19.183Z,7.03
2018-07-20T06:22:48.539Z,5.97
2018-07-20T06:25:17.931Z,6.93
2018-07-20T06:27:47.282Z,6.67
2018-07-20T06:30:16.639Z,5.87
2018-07-20T06:32:45.986Z,6.43
2018-07-20T06:35:15.346Z,5.57
2018-07-20T06:37:44.702Z,5.00
2018-07-20T06:40:14.050Z,5.00
2018-07-20T06:42:43.404Z,4.40
2018-07-20T06:45:12.754Z,4.67
2018-07-20T06:47:42.119Z,4.50
2018-07-20T06:50:17.567Z,4.10
2018-07-20T06:52:48.060Z,5.10
2018-07-20T06:55:17.455Z,4.47
2018-07-20T06:57:46.970Z,4.67
2018-07-20T07:00:16.339Z,4.20
2018-07-20T07:02:45.441Z,4.20
2018-07-20T07:05:14.534Z,3.80
2018-07-20T07:07:43.903Z,4.33
2018-07-20T07:10:13.266Z,4.07
2018-07-20T07:12:42.626Z,3.70
2018-07-20T07:15:12.054Z,3.43
2018-07-20T07:17:41.509Z,4.43
2018-07-20T07:20:11.055Z,3.83
2018-07-20T07:22:40.158Z,3.70
2018-07-20T07:25:09.530Z,4.10
2018-07-20T07:27:38.882Z,3.73
2018-07-20T07:30:08.846Z,3.92
2018-07-20T07:32:38.211Z,3.93
2018-07-20T07:35:07.580Z,4.07
2018-07-20T07:37:36.677Z,3.63
2018-07-20T07:40:06.108Z,3.70
2018-07-20T07:42:35.458Z,3.90
2018-07-20T07:45:04.875Z,3.37
2018-07-20T07:47:33.974Z,3.77
2018-07-20T07:50:03.102Z,3.40
2018-07-20T07:52:32.446Z,3.43
2018-07-20T07:55:01.790Z,3.50
2018-07-20T07:57:31.152Z,3.57
2018-07-20T08:00:00.522Z,3.50
2018-07-20T08:02:29.893Z,3.00
2018-07-20T08:04:59.247Z,3.27
2018-07-20T08:07:28.606Z,3.00
2018-07-20T08:09:58.030Z,3.00
2018-07-20T08:12:27.388Z,3.10
2018-07-20T08:14:56.743Z,2.70
2018-07-20T08:17:26.106Z,2.90
2018-07-20T08:19:55.457Z,2.73
2018-07-20T08:22:24.809Z,2.93
2018-07-20T08:24:54.161Z,2.70
2018-07-20T08:27:23.526Z,2.93
2018-07-20T08:29:52.873Z,3.03
2018-07-20T08:32:21.973Z,3.10
2018-07-20T08:34:51.084Z,3.30
2018-07-20T08:37:20.436Z,3.50
2018-07-20T08:39:49.827Z,3.33
2018-07-20T08:42:19.192Z,2.93
2018-07-20T08:44:48.580Z,3.27
2018-07-20T08:47:17.972Z,2.80
2018-07-20T08:49:47.376Z,3.57
2018-07-20T08:52:16.478Z,3.00
2018-07-20T08:54:45.586Z,2.80
2018-07-20T08:57:14.946Z,3.03
2018-07-20T08:59:44.294Z,2.93
2018-07-20T09:02:13.614Z,2.77
2018-07-20T09:04:42.953Z,2.67
2018-07-20T09:07:12.282Z,3.00
2018-07-20T09:09:41.621Z,2.60
2018-07-20T09:12:10.966Z,3.20
2018-07-20T09:14:40.304Z,3.30
2018-07-20T09:17:09.635Z,3.03
2018-07-20T09:19:38.957Z,3.33
2018-07-20T09:22:08.491Z,3.05
2018-07-20T09:24:37.830Z,3.57
2018-07-20T09:27:07.163Z,3.30
2018-07-20T09:29:36.597Z,3.30
2018-07-20T09:32:06.025Z,3.37
2018-07-20T09:34:35.355Z,3.33
2018-07-20T09:37:04.675Z,3.60
2018-07-20T09:39:34.023Z,3.40
2018-07-20T09:42:03.351Z,3.20
2018-07-20T09:44:32.683Z,3.40
2018-07-20T09:47:02.015Z,3.60
2018-07-20T09:49:31.351Z,3.73
2018-07-20T09:52:00.683Z,4.03
2018-07-20T09:54:30.011Z,3.60
2018-07-20T09:56:59.335Z,3.70
2018-07-20T09:59:28.736Z,3.70
2018-07-20T10:01:58.108Z,3.93
2018-07-20T10:04:27.211Z,3.90
2018-07-20T10:06:56.553Z,3.70
2018-07-20T10:09:25.907Z,3.77
2018-07-20T10:11:55.272Z,4.10
2018-07-20T10:14:24.638Z,3.50
2018-07-20T10:16:54.030Z,3.20
2018-07-20T10:19:23.419Z,3.37
2018-07-20T10:21:52.506Z,3.77
2018-07-20T10:24:21.883Z,3.53
2018-07-20T10:26:51.261Z,3.53
2018-07-20T10:29:21.025Z,3.73
2018-07-20T10:31:50.373Z,4.23
2018-07-20T10:34:19.735Z,3.90
2018-07-20T10:36:49.095Z,3.80
2018-07-20T10:39:18.465Z,3.60
2018-07-20T10:41:47.820Z,3.40
2018-07-20T10:44:17.178Z,3.72
2018-07-20T10:46:46.638Z,4.00
2018-07-20T10:49:16.034Z,3.97
2018-07-20T10:51:45.399Z,3.73
2018-07-20T10:54:14.803Z,3.42
2018-07-20T10:56:44.130Z,3.50
2018-07-20T10:59:13.512Z,3.20
2018-07-20T11:01:43.063Z,3.17
2018-07-20T11:04:12.338Z,3.80
2018-07-20T11:06:41.694Z,3.20
2018-07-20T11:09:11.052Z,3.17
2018-07-20T11:11:40.398Z,3.40
2018-07-20T11:14:09.799Z,3.30
2018-07-20T11:16:39.166Z,3.83
2018-07-20T11:19:08.527Z,3.20
2018-07-20T11:21:37.903Z,3.17
2018-07-20T11:24:07.330Z,3.52
2018-07-20T11:26:36.694Z,3.35
2018-07-20T11:29:06.060Z,3.20
2018-07-20T11:31:35.169Z,3.65
2018-07-20T11:34:04.540Z,3.70
2018-07-20T11:36:33.658Z,3.60
2018-07-20T11:39:03.032Z,4.00
2018-07-20T11:41:32.403Z,3.70
2018-07-20T11:44:01.764Z,3.72
2018-07-20T11:46:31.154Z,3.80
2018-07-20T11:49:00.525Z,4.00
2018-07-20T11:51:29.899Z,3.70
2018-07-20T11:53:59.262Z,3.90
2018-07-20T11:56:28.610Z,3.58
2018-07-20T11:58:57.970Z,3.98
2018-07-20T12:01:27.349Z,3.37
2018-07-20T12:03:56.687Z,2.98
2018-07-20T12:06:26.049Z,3.58
2018-07-20T12:08:55.144Z,4.12
2018-07-20T12:11:24.259Z,3.90
2018-07-20T12:13:53.618Z,3.40
2018-07-20T12:16:22.982Z,3.55
2018-07-20T12:18:52.376Z,3.65
2018-07-20T12:21:21.710Z,3.83
2018-07-20T12:23:51.086Z,3.15
2018-07-20T12:26:20.464Z,3.05
2018-07-20T12:28:49.839Z,3.42
2018-07-20T12:31:19.215Z,3.55
2018-07-20T12:33:48.595Z,3.12
2018-07-20T12:36:17.978Z,3.62
2018-07-20T12:38:47.357Z,3.72
2018-07-20T12:41:16.837Z,3.65
2018-07-20T12:43:46.190Z,3.80
2018-07-20T12:46:15.546Z,3.27
2018-07-20T12:48:44.916Z,3.33
2018-07-20T12:51:14.270Z,3.58
2018-07-20T12:53:43.643Z,3.30
2018-07-20T12:56:12.996Z,3.72
2018-07-20T12:58:42.435Z,3.90
2018-07-20T13:01:11.794Z,3.10
2018-07-20T13:03:41.115Z,3.70
2018-07-20T13:06:10.438Z,3.83
2018-07-20T13:08:39.778Z,3.70
2018-07-20T13:11:09.114Z,3.80
2018-07-20T13:13:38.450Z,3.83
2018-07-20T13:16:07.787Z,3.75
2018-07-20T13:18:37.123Z,3.70
2018-07-20T13:21:06.646Z,4.10
2018-07-20T13:23:36.075Z,3.60
2018-07-20T13:26:05.674Z,3.60
2018-07-20T13:28:35.015Z,3.40
2018-07-20T13:31:04.334Z,3.52
2018-07-20T13:33:33.667Z,2.92
2018-07-20T13:36:03.086Z,3.70
2018-07-20T13:38:32.418Z,3.60
2018-07-20T13:41:01.762Z,3.87
2018-07-20T13:43:31.103Z,3.40
2018-07-20T13:46:00.194Z,3.75
2018-07-20T13:48:29.539Z,3.15
2018-07-20T13:50:58.902Z,3.47
2018-07-20T13:53:27.997Z,3.50
2018-07-20T13:55:57.171Z,3.47
2018-07-20T13:58:26.578Z,3.50
2018-07-20T14:00:55.905Z,3.83
2018-07-20T14:03:25.287Z,3.70
2018-07-20T14:05:54.651Z,3.70
2018-07-20T14:08:24.035Z,3.77
2018-07-20T14:10:53.386Z,3.50
2018-07-20T14:13:22.761Z,3.45
2018-07-20T14:15:52.126Z,3.90
2018-07-20T14:18:21.554Z,3.58
2018-07-20T14:20:50.939Z,3.60
2018-07-20T14:23:20.327Z,3.70
2018-07-20T14:25:49.686Z,3.58
2018-07-20T14:28:19.142Z,3.30
2018-07-20T14:30:48.494Z,3.40
2018-07-20T14:33:17.947Z,2.95
2018-07-20T14:35:47.259Z,3.67
2018-07-20T14:38:16.618Z,3.50
2018-07-20T14:40:45.750Z,3.83
2018-07-20T14:43:15.131Z,3.43
2018-07-20T14:45:44.514Z,3.25
2018-07-20T14:48:13.867Z,3.50
2018-07-20T14:50:43.223Z,3.37
2018-07-20T14:53:12.317Z,3.47
2018-07-20T14:55:41.557Z,3.75
2018-07-20T14:58:10.617Z,3.40
2018-07-20T15:00:39.997Z,3.70
2018-07-20T15:03:09.376Z,3.50
2018-07-20T15:05:39.042Z,3.65
2018-07-20T15:08:09.172Z,3.94
2018-07-20T15:10:38.625Z,3.80
2018-07-20T15:13:07.944Z,3.70
2018-07-20T15:15:37.063Z,3.92
2018-07-20T15:18:06.495Z,3.40
2018-07-20T15:20:35.819Z,3.90
2018-07-20T15:23:05.215Z,3.67
2018-07-20T15:25:34.608Z,3.62
2018-07-20T15:28:03.973Z,3.08
2018-07-20T15:30:33.343Z,3.52
2018-07-20T15:33:02.740Z,3.02
2018-07-20T15:35:32.133Z,3.55
2018-07-20T15:38:01.539Z,3.33
2018-07-20T15:40:30.910Z,4.03
2018-07-20T15:43:00.300Z,3.55
2018-07-20T15:45:29.702Z,3.72
2018-07-20T15:47:59.098Z,3.30
2018-07-20T15:50:28.476Z,3.15
2018-07-20T15:53:36.270Z,3.85
2018-07-20T15:55:27.259Z,3.50
2018-07-20T15:57:56.383Z,3.60
2018-07-20T16:00:25.748Z,3.27
2018-07-20T16:02:55.091Z,3.30
2018-07-20T16:05:24.444Z,3.50
2018-07-20T16:07:53.810Z,3.33
2018-07-20T16:10:23.182Z,3.30
2018-07-20T16:12:52.540Z,3.65
2018-07-20T16:15:21.914Z,3.37
2018-07-20T16:17:51.278Z,3.60
2018-07-20T16:20:20.427Z,3.60
2018-07-20T16:22:49.857Z,3.10
2018-07-20T16:25:19.138Z,3.60
2018-07-20T16:27:48.499Z,3.35
2018-07-20T16:30:17.846Z,3.57
2018-07-20T16:32:47.205Z,4.10
2018-07-20T16:35:16.555Z,3.20
2018-07-20T16:37:45.993Z,3.37
2018-07-20T16:40:15.314Z,3.70
2018-07-20T16:42:44.679Z,3.45
2018-07-20T16:45:14.018Z,3.62
2018-07-20T16:47:43.400Z,3.67
2018-07-20T16:50:12.759Z,3.27
2018-07-20T16:52:42.111Z,3.30
2018-07-20T16:55:11.451Z,3.40
2018-07-20T16:57:40.899Z,3.27
2018-07-20T17:00:10.570Z,3.02
2018-07-20T17:02:40.031Z,3.30
2018-07-20T17:05:09.403Z,3.37
2018-07-20T17:07:38.786Z,3.08
2018-07-20T17:10:09.018Z,3.68
2018-07-20T17:12:38.395Z,2.90
2018-07-20T17:15:07.927Z,3.05
2018-07-20T17:17:37.302Z,3.30
2018-07-20T17:20:07.084Z,3.00
2018-07-20T17:22:36.459Z,3.02
2018-07-20T17:25:05.842Z,2.87
2018-07-20T17:27:35.218Z,3.30
2018-07-20T17:30:06.359Z,3.47
2018-07-20T17:32:35.730Z,3.02
2018-07-20T17:35:05.110Z,3.15
2018-07-20T17:37:34.518Z,3.10
2018-07-20T17:40:03.638Z,3.40
2018-07-20T17:42:33.020Z,3.12
2018-07-20T17:45:02.401Z,3.08
2018-07-20T17:47:31.521Z,2.92
2018-07-20T17:50:00.899Z,3.22
2018-07-20T17:52:30.277Z,3.25
2018-07-20T17:54:59.647Z,3.02
2018-07-20T17:57:29.043Z,3.33
2018-07-20T17:59:58.391Z,3.27
2018-07-20T18:02:27.749Z,3.37
2018-07-20T18:04:57.094Z,3.30
2018-07-20T18:07:26.454Z,3.40
2018-07-20T18:09:55.815Z,3.40
2018-07-20T18:12:25.181Z,3.00
2018-07-20T18:14:54.527Z,3.15
2018-07-20T18:17:23.889Z,3.65
2018-07-20T18:19:53.232Z,3.83
2018-07-20T18:22:23.744Z,3.73
2018-07-20T18:24:52.857Z,3.77
2018-07-20T18:27:22.422Z,3.70
2018-07-20T18:29:51.816Z,3.67
2018-07-20T18:32:21.208Z,3.70
2018-07-20T18:34:50.653Z,3.72
2018-07-20T18:37:19.808Z,3.75
2018-07-20T18:39:49.262Z,3.42
2018-07-20T18:42:18.680Z,2.90
2018-07-20T18:44:48.070Z,3.60
2018-07-20T18:47:17.555Z,4.10
2018-07-20T18:49:46.694Z,3.30
2018-07-20T18:52:16.032Z,4.10
2018-07-20T18:54:45.492Z,4.15
2018-07-20T18:57:14.863Z,3.65
2018-07-20T18:59:45.124Z,3.67
2018-07-20T19:02:14.173Z,3.43
2018-07-20T19:04:43.279Z,3.35
2018-07-20T19:07:12.646Z,4.10
2018-07-20T19:09:41.992Z,3.62
2018-07-20T19:12:11.336Z,3.37
2018-07-20T19:14:40.694Z,3.40
2018-07-20T19:17:10.125Z,3.98
2018-07-20T19:19:39.496Z,3.47
2018-07-20T19:22:09.130Z,3.75
2018-07-20T19:24:38.479Z,3.58
2018-07-20T19:27:08.198Z,3.50
2018-07-20T19:29:37.589Z,3.95
2018-07-20T19:32:06.935Z,4.10
2018-07-20T19:34:36.292Z,3.70
2018-07-20T19:37:05.675Z,3.80
2018-07-20T19:39:35.098Z,3.70
2018-07-20T19:42:04.382Z,3.42
2018-07-20T19:44:33.733Z,4.08
2018-07-20T19:47:03.090Z,3.72
2018-07-20T19:49:32.477Z,3.85
2018-07-20T19:52:01.798Z,3.80
2018-07-20T19:54:31.155Z,3.52
2018-07-20T19:57:00.489Z,2.90
2018-07-20T19:59:29.847Z,3.15
2018-07-20T20:01:59.187Z,2.90
2018-07-20T20:04:28.545Z,3.42
2018-07-20T20:06:57.938Z,3.25
2018-07-20T20:09:27.288Z,2.98
2018-07-20T20:11:56.642Z,3.37
2018-07-20T20:14:25.998Z,3.10
2018-07-20T20:16:55.351Z,3.30
2018-07-20T20:19:24.700Z,3.80
2018-07-20T20:21:54.046Z,3.62
2018-07-20T20:24:23.387Z,3.55
2018-07-20T20:26:52.735Z,3.47
2018-07-20T20:29:22.102Z,3.37
2018-07-20T20:31:51.430Z,3.05
2018-07-20T20:34:21.030Z,3.58
2018-07-20T20:36:50.143Z,3.70
2018-07-20T20:39:19.499Z,3.77
2018-07-20T20:41:48.840Z,3.47
2018-07-20T20:44:18.195Z,3.50
2018-07-20T20:46:47.533Z,3.37
2018-07-20T20:49:16.890Z,3.30
2018-07-20T20:51:46.298Z,3.22
2018-07-20T20:54:15.592Z,3.70
2018-07-20T20:56:44.936Z,3.50
2018-07-20T20:59:14.044Z,3.60
2018-07-20T21:01:43.395Z,3.87
2018-07-20T21:04:12.752Z,3.65
2018-07-20T21:06:41.831Z,3.53
2018-07-20T21:09:10.925Z,3.60
2018-07-20T21:11:40.295Z,3.37
2018-07-20T21:14:09.627Z,3.77
2018-07-20T21:16:38.731Z,4.20
2018-07-20T21:19:08.070Z,3.70
2018-07-20T21:21:37.427Z,3.63
2018-07-20T21:24:07.563Z,4.17
2018-07-20T21:26:36.915Z,3.67
2018-07-20T21:29:06.352Z,3.63
2018-07-20T21:31:35.706Z,3.90
2018-07-20T21:34:05.084Z,4.33
2018-07-20T21:36:34.434Z,4.10
2018-07-20T21:39:04.335Z,4.50
2018-07-20T21:41:33.678Z,4.00
2018-07-20T21:44:03.024Z,4.33
2018-07-20T21:46:32.361Z,4.17
2018-07-20T21:49:01.447Z,3.83
2018-07-20T21:51:30.793Z,4.37
2018-07-20T21:54:00.122Z,4.03
2018-07-20T21:56:29.466Z,4.20
2018-07-20T21:58:58.931Z,4.20
2018-07-20T22:01:28.316Z,4.03
2018-07-20T22:03:57.670Z,4.30
2018-07-20T22:06:27.051Z,3.93
2018-07-20T22:08:56.415Z,3.80
2018-07-20T22:11:25.803Z,3.60
2018-07-20T22:13:55.212Z,4.07
2018-07-20T22:16:24.570Z,3.50
2018-07-20T22:18:53.952Z,4.50
2018-07-20T22:21:23.328Z,3.70
2018-07-20T22:23:52.727Z,3.73
2018-07-20T22:26:22.108Z,4.10
2018-07-20T22:28:51.515Z,4.13
2018-07-20T22:31:20.879Z,4.13
2018-07-20T22:33:50.018Z,4.30
2018-07-20T22:36:19.378Z,4.03
2018-07-20T22:38:48.493Z,4.27
2018-07-20T22:41:17.867Z,4.13
2018-07-20T22:43:47.094Z,4.35
2018-07-20T22:46:16.463Z,4.10
2018-07-20T22:48:45.824Z,4.10
2018-07-20T22:51:15.209Z,4.80
2018-07-20T22:53:44.613Z,4.60
2018-07-20T22:56:13.942Z,4.08
2018-07-20T22:58:43.291Z,4.80
2018-07-20T23:01:12.387Z,4.60
2018-07-20T23:03:41.497Z,4.10
2018-07-20T23:06:10.829Z,4.37
2018-07-20T23:08:40.179Z,4.17
2018-07-20T23:11:09.275Z,4.17
2018-07-20T23:13:38.519Z,4.53
2018-07-20T23:16:08.917Z,4.37
2018-07-20T23:18:38.263Z,4.20
2018-07-20T23:21:07.743Z,4.90
2018-07-20T23:23:37.020Z,4.80
2018-07-20T23:26:06.362Z,4.63
2018-07-20T23:28:35.702Z,4.80
2018-07-20T23:31:04.936Z,4.90
2018-07-20T23:33:34.279Z,5.10
2018-07-20T23:36:03.612Z,4.73
2018-07-20T23:38:32.959Z,4.33
2018-07-20T23:41:02.295Z,4.60
2018-07-20T23:43:31.659Z,4.13
2018-07-20T23:46:00.990Z,4.73
2018-07-20T23:48:30.327Z,4.97
2018-07-20T23:50:59.687Z,4.77
2018-07-20T23:53:29.025Z,4.93
2018-07-20T23:55:58.377Z,5.70
2018-07-20T23:58:27.764Z,5.70
